Accueil
METAR-TAF:

METAR-TAF

Aéroports :

Aéroport de Gran Canaria

Grande Canarie, Espagne

latitude: 27-56N, longitude: 015-23W, altitude: 23 m

Observation

Le bulletin a été fait il y a 21 minutes, à 06:00 UTC
Vent 5 kt de nord-ouest
Température 15°C
Humidité 67%
Pression 1024 hPa
Visibilité 10 km ou plus
Quelques nuages à une hauteur de 3500 ft

METAR: GCLP 260600Z 32005KT 9999 FEW035 15/09 Q1024 NOSIG

Heure: 06:21 (06:21 UTC)

Prévision

Le bulletin a été fait il y a 4 heures et 21 minutes, à 02:00 UTC
Prévision valable du 26 à 03 UTC au 27 à 03 UTC
Vent 11 kt de nord-ouest
Visibilité 10 km ou plus
Nuages épars à une hauteur de 3000 ft
Probabilité 40% :
Temporairement
du 26 à 12 UTC au 26 à 20 UTC
Vent 10 kt de nord-est

TAF: GCLP 260200Z 2603/2703 31011KT 9999 SCT030 TX20/2615Z TN14/2606Z PROB40 TEMPO 2612/2620 04010KT

Observations et prévisions météorologiques de plus de 4000 aéroports (messages METAR et TAF).

Les stations disponibles sont représentées par des disques jaunes et rouges sur la carte.

Passer la souris dessus pour voir le nom de la station.

Cliquer dessus pour voir les observations et prévisions météorologiques.

Pour changer de carte: cliquez sur les boutons verts avec une croix noire pour zoomer, sur le bouton vert avec un tiret pour effectuer un zoom arrière, ou sur les flèches vertes pour les cartes adjacentes.


METAR-TAF: